Time;durP1;ratioP1;P1;durP2;ratioP2;P2;SDS_P1;SDS_P2;PMS_P1;PMS_P2;Temp;Humidity;BMP_temperature;BMP_pressure;BME280_temperature;BME280_humidity;BME280_pressure;Samples;Min_cycle;Max_cycle;Signal;HPM_P1;HPM_P2
2023/03/14 00:01:22;;;;;;;;;0.00;0.00;;;;;25.09;66.71;98342.63;5093880;27;45372;-77
2023/03/14 00:03:48;;;;;;;;;0.00;0.00;;;;;24.81;68.28;98374.47;5076854;27;45448;-78
2023/03/14 00:06:14;;;;;;;;;0.00;0.00;;;;;24.77;68.42;98371.28;5086187;27;45415;-77
2023/03/14 00:08:41;;;;;;;;;0.00;0.00;;;;;24.98;68.41;98363.53;5093247;27;46379;-77
2023/03/14 00:11:15;;;;;;;;;0.00;0.00;;;;;24.53;69.34;98347.03;5078171;27;45426;-78
2023/03/14 00:13:41;;;;;;;;;0.25;0.00;;;;;24.52;69.22;98327.31;5096419;27;45558;-78
2023/03/14 00:16:12;;;;;;;;;0.00;0.00;;;;;24.60;68.68;98342.66;5096679;27;45500;-79
2023/03/14 00:18:38;;;;;;;;;0.00;0.00;;;;;24.77;69.58;98335.41;5083811;27;46164;-79
2023/03/14 00:21:05;;;;;;;;;0.00;0.00;;;;;24.94;69.15;98334.41;5088646;27;45364;-79
2023/03/14 00:23:32;;;;;;;;;0.25;0.00;;;;;25.00;68.24;98360.66;5111915;27;45422;-79
2023/03/14 00:26:03;;;;;;;;;0.00;0.00;;;;;25.18;68.11;98360.47;5092732;27;45606;-79
2023/03/14 00:28:29;;;;;;;;;0.00;0.00;;;;;25.34;67.46;98361.25;5082136;27;46403;-79
2023/03/14 00:30:55;;;;;;;;;0.00;0.00;;;;;25.28;60.59;98366.53;5076935;27;45696;-78
2023/03/14 00:33:21;;;;;;;;;0.00;0.00;;;;;25.07;64.82;98368.94;5095500;27;45527;-78
2023/03/14 00:35:58;;;;;;;;;0.00;0.00;;;;;25.21;64.70;98368.22;5076852;27;45459;-78
2023/03/14 00:38:25;;;;;;;;;0.00;0.00;;;;;25.64;64.97;98362.34;5094639;27;45594;-78
2023/03/14 00:40:51;;;;;;;;;0.00;0.00;;;;;25.75;61.86;98374.66;5095865;27;45438;-77
2023/03/14 00:43:17;;;;;;;;;1.00;0.00;;;;;25.73;62.36;98371.28;5093716;27;45514;-78
2023/03/14 00:45:42;;;;;;;;;0.00;0.00;;;;;25.68;63.30;98370.94;5095005;27;45327;-78
2023/03/14 00:48:08;;;;;;;;;0.00;0.00;;;;;25.93;63.97;98367.13;5095663;27;45635;-77
2023/03/14 00:50:33;;;;;;;;;0.00;0.00;;;;;26.07;63.47;98377.19;5095110;27;45401;-77
2023/03/14 00:52:59;;;;;;;;;1.00;0.00;;;;;26.28;63.07;98381.09;5093822;27;45614;-78
2023/03/14 00:55:24;;;;;;;;;0.00;0.00;;;;;26.47;64.38;98386.09;5069402;28;45563;-77
2023/03/14 00:57:50;;;;;;;;;0.25;0.00;;;;;26.69;64.05;98376.25;5088008;27;46750;-78
2023/03/14 01:00:15;;;;;;;;;0.00;0.00;;;;;26.69;64.70;98381.66;5073221;28;45433;-78
2023/03/14 01:02:41;;;;;;;;;0.00;0.00;;;;;26.59;64.79;98400.84;5088650;27;45506;-78
2023/03/14 01:05:07;;;;;;;;;0.00;0.00;;;;;26.84;64.52;98419.56;5094575;27;45594;-78
2023/03/14 01:07:32;;;;;;;;;1.00;0.00;;;;;26.94;63.76;98434.59;5094923;27;45665;-78
2023/03/14 01:09:58;;;;;;;;;0.00;0.00;;;;;27.18;63.35;98433.50;5090889;27;45457;-78
2023/03/14 01:12:23;;;;;;;;;0.00;0.00;;;;;27.01;64.56;98427.41;5076338;27;45655;-77
2023/03/14 01:14:48;;;;;;;;;0.00;0.00;;;;;26.99;64.49;98399.69;5090901;27;45567;-77
2023/03/14 01:17:14;;;;;;;;;0.00;0.00;;;;;27.14;64.00;98380.78;5068671;27;46582;-77
2023/03/14 01:19:39;;;;;;;;;1.00;0.00;;;;;27.15;64.17;98370.81;5090741;27;45488;-77
2023/03/14 01:22:05;;;;;;;;;0.00;0.00;;;;;27.22;63.96;98341.97;5094676;27;45543;-77
2023/03/14 01:24:30;;;;;;;;;0.00;0.00;;;;;27.15;63.09;98332.94;5075992;27;45412;-77
2023/03/14 01:26:55;;;;;;;;;0.00;0.00;;;;;26.96;63.90;98348.66;5094759;27;46330;-77
2023/03/14 01:29:21;;;;;;;;;0.00;0.00;;;;;26.90;64.09;98360.19;5092454;27;45491;-77
2023/03/14 01:31:46;;;;;;;;;0.00;0.00;;;;;26.95;63.70;98381.31;5094248;27;45431;-77
2023/03/14 01:34:12;;;;;;;;;0.00;0.00;;;;;27.08;64.03;98389.63;5093088;27;45546;-77
2023/03/14 01:36:37;;;;;;;;;0.00;0.00;;;;;27.04;63.79;98391.03;5094438;27;46159;-78
2023/03/14 01:39:05;;;;;;;;;0.00;0.00;;;;;27.09;64.02;98392.16;5094656;27;45495;-77
2023/03/14 01:41:32;;;;;;;;;0.00;0.00;;;;;27.03;63.69;98390.19;5094022;27;45452;-77
2023/03/14 01:43:58;;;;;;;;;0.00;0.00;;;;;27.12;63.45;98390.13;5072834;27;45445;-77
2023/03/14 01:46:44;;;;;;;;;0.00;0.00;;;;;27.02;63.42;98379.53;5075120;27;47850;-77
2023/03/14 01:49:33;;;;;;;;;0.00;0.00;;;;;27.17;63.49;98406.63;5090110;27;45442;-77
2023/03/14 01:52:13;;;;;;;;;0.00;0.00;;;;;27.34;63.44;98425.22;5092751;27;45361;-77
2023/03/14 01:54:52;;;;;;;;;0.00;0.00;;;;;27.26;63.73;98419.06;5091591;27;45497;-77
2023/03/14 01:57:32;;;;;;;;;0.00;0.00;;;;;27.29;63.91;98426.81;5083864;27;46277;-77
2023/03/14 02:00:08;;;;;;;;;0.20;0.00;;;;;27.33;63.62;98426.25;5064632;27;45500;-77
2023/03/14 02:02:34;;;;;;;;;0.00;0.00;;;;;27.27;63.30;98431.59;5075046;27;45468;-77
2023/03/14 02:04:59;;;;;;;;;0.00;0.00;;;;;27.30;63.86;98426.66;5091202;27;45520;-77
2023/03/14 02:07:33;;;;;;;;;0.00;0.00;;;;;27.40;63.42;98416.38;5087062;27;46066;-78
2023/03/14 02:10:01;;;;;;;;;0.00;0.00;;;;;27.52;63.46;98400.50;5069739;27;45565;-77
2023/03/14 02:12:27;;;;;;;;;0.00;0.00;;;;;27.57;63.04;98386.44;5075930;27;45379;-77
2023/03/14 02:14:53;;;;;;;;;0.00;0.00;;;;;27.60;62.99;98365.25;5090543;27;45475;-77
2023/03/14 02:17:20;;;;;;;;;0.75;0.00;;;;;27.60;63.12;98354.41;5094005;27;45505;-77
2023/03/14 02:20:13;;;;;;;;;0.00;0.00;;;;;27.61;62.54;98356.09;5086382;27;45381;-77
2023/03/14 02:22:41;;;;;;;;;0.00;0.00;;;;;27.63;62.26;98350.50;5090547;27;45437;-77
2023/03/14 02:25:46;;;;;;;;;0.00;0.00;;;;;27.76;62.35;98354.19;5069210;27;45676;-77
2023/03/14 02:28:12;;;;;;;;;0.00;0.00;;;;;27.75;62.48;98338.97;5080257;27;46323;-77
2023/03/14 02:30:38;;;;;;;;;0.00;0.00;;;;;27.80;62.01;98322.16;5070390;27;45676;-77
2023/03/14 02:33:03;;;;;;;;;0.00;0.00;;;;;27.71;61.84;98309.75;5091031;27;45587;-77
2023/03/14 02:36:02;;;;;;;;;0.00;0.00;;;;;27.62;62.51;98309.03;5092049;27;45548;-77
2023/03/14 02:38:36;;;;;;;;;0.00;0.00;;;;;27.66;62.32;98313.00;5091588;27;47299;-77
2023/03/14 02:41:02;;;;;;;;;0.00;0.00;;;;;27.67;62.67;98308.44;5088390;27;45377;-77
2023/03/14 02:43:27;;;;;;;;;0.00;0.00;;;;;27.65;61.79;98305.09;5092635;27;45429;-77
2023/03/14 02:45:54;;;;;;;;;0.00;0.00;;;;;27.69;62.61;98298.25;5078355;27;45515;-77
2023/03/14 02:48:19;;;;;;;;;0.00;0.00;;;;;27.63;61.76;98299.88;5096885;27;45397;-77
2023/03/14 02:50:47;;;;;;;;;1.00;0.00;;;;;27.57;62.53;98291.66;5078465;27;45396;-77
2023/03/14 02:53:18;;;;;;;;;0.00;0.00;;;;;27.45;62.01;98278.59;5077513;27;45461;-77
2023/03/14 02:55:48;;;;;;;;;0.25;0.00;;;;;27.54;62.08;98278.47;5096364;27;45471;-77
2023/03/14 02:58:14;;;;;;;;;0.00;0.00;;;;;27.45;61.73;98273.16;5096280;27;45479;-77
2023/03/14 03:00:39;;;;;;;;;0.00;0.00;;;;;27.48;61.93;98279.22;5091742;27;45409;-77
2023/03/14 03:03:08;;;;;;;;;0.00;0.00;;;;;27.48;62.59;98277.38;5093465;27;45534;-77
2023/03/14 03:05:33;;;;;;;;;0.00;0.00;;;;;27.58;62.22;98277.09;5091708;27;45603;-76
2023/03/14 03:07:58;;;;;;;;;0.00;0.00;;;;;27.52;61.50;98272.38;5094453;27;45492;-77
2023/03/14 03:10:24;;;;;;;;;0.00;0.00;;;;;27.27;62.26;98272.72;5096017;27;45726;-77
2023/03/14 03:12:51;;;;;;;;;0.00;0.00;;;;;27.11;62.27;98270.22;5077227;27;45543;-77
2023/03/14 03:15:16;;;;;;;;;0.00;0.00;;;;;26.82;62.68;98264.72;5091279;27;45483;-76
2023/03/14 03:17:42;;;;;;;;;0.00;0.00;;;;;26.70;62.79;98264.34;5096309;27;46443;-77
2023/03/14 03:20:09;;;;;;;;;0.00;0.00;;;;;26.62;62.89;98265.28;5075295;27;45532;-77
2023/03/14 03:22:35;;;;;;;;;0.00;0.00;;;;;26.62;62.71;98262.59;5096744;27;45524;-77
2023/03/14 03:25:02;;;;;;;;;0.00;0.00;;;;;26.58;63.23;98265.84;5096049;27;45369;-77
2023/03/14 03:27:30;;;;;;;;;0.25;0.00;;;;;26.57;63.41;98264.16;5077872;27;48133;-77
2023/03/14 03:29:55;;;;;;;;;0.00;0.00;;;;;26.63;63.08;98253.47;5096002;27;45581;-77
2023/03/14 03:32:21;;;;;;;;;0.00;0.00;;;;;26.61;63.15;98258.22;5096557;27;45406;-76
2023/03/14 03:34:46;;;;;;;;;0.00;0.00;;;;;26.62;63.70;98250.94;5095699;27;45395;-77
2023/03/14 03:37:11;;;;;;;;;0.00;0.00;;;;;26.64;63.40;98243.47;5096399;27;45507;-76
2023/03/14 03:39:37;;;;;;;;;0.00;0.00;;;;;26.74;63.50;98241.34;5095794;27;45471;-76
2023/03/14 03:42:02;;;;;;;;;0.00;0.00;;;;;26.76;63.62;98248.25;5095731;27;45436;-77
2023/03/14 03:44:27;;;;;;;;;0.00;0.00;;;;;26.81;62.75;98246.84;5089699;27;45616;-76
2023/03/14 03:46:53;;;;;;;;;0.00;0.00;;;;;26.84;63.16;98233.78;5096056;27;46102;-76
2023/03/14 03:49:18;;;;;;;;;0.00;0.00;;;;;26.84;62.57;98233.78;5092912;27;45489;-76
2023/03/14 03:51:44;;;;;;;;;0.00;0.00;;;;;26.87;62.62;98233.41;5071591;27;45470;-77
2023/03/14 03:54:09;;;;;;;;;0.00;0.00;;;;;26.64;63.34;98232.66;5094740;27;45527;-77
2023/03/14 03:56:34;;;;;;;;;0.00;0.00;;;;;16.73;100.00;98272.50;5090475;27;46344;-76
2023/03/14 03:59:00;;;;;;;;;0.00;0.00;;;;;14.06;100.00;98279.69;5071067;27;45512;-77
2023/03/14 04:01:25;;;;;;;;;0.00;0.00;;;;;13.03;100.00;98271.47;5096024;27;45547;-76
2023/03/14 04:03:50;;;;;;;;;0.00;0.00;;;;;12.51;100.00;98278.22;5089651;27;45461;-77
2023/03/14 04:06:16;;;;;;;;;0.00;0.00;;;;;12.22;100.00;98266.78;5095689;27;46456;-76
2023/03/14 04:08:41;;;;;;;;;0.00;0.00;;;;;12.08;100.00;98263.22;5093874;27;45378;-76
2023/03/14 04:11:07;;;;;;;;;0.00;0.00;;;;;11.94;100.00;98266.69;5095383;27;45685;-77
2023/03/14 04:13:32;;;;;;;;;0.00;0.00;;;;;11.86;100.00;98253.13;5093434;27;45539;-76
2023/03/14 04:15:58;;;;;;;;;1.00;0.00;;;;;11.78;100.00;98271.19;5095491;27;45388;-76
2023/03/14 04:18:27;;;;;;;;;1.00;0.00;;;;;11.73;100.00;98273.22;5093833;27;45422;-76
2023/03/14 04:20:54;;;;;;;;;0.00;0.00;;;;;11.68;100.00;98273.50;5091183;27;45515;-76
2023/03/14 04:23:20;;;;;;;;;0.00;0.00;;;;;11.64;100.00;98252.63;5095598;27;45499;-77
2023/03/14 04:25:45;;;;;;;;;0.00;0.00;;;;;11.59;100.00;98244.13;5095009;27;45435;-76
2023/03/14 04:28:11;;;;;;;;;0.00;0.00;;;;;11.57;100.00;98238.94;5076126;27;45451;-76
2023/03/14 04:30:36;;;;;;;;;0.00;0.00;;;;;11.54;100.00;98233.84;5095340;27;45507;-76
2023/03/14 04:33:01;;;;;;;;;0.00;0.00;;;;;11.53;100.00;98229.50;5094991;27;45475;-76
2023/03/14 04:35:27;;;;;;;;;0.00;0.00;;;;;11.52;100.00;98226.00;5076239;27;48025;-76
2023/03/14 04:37:52;;;;;;;;;0.00;0.00;;;;;11.52;100.00;98217.25;5075358;27;45471;-76
2023/03/14 04:40:18;;;;;;;;;0.00;0.00;;;;;11.49;100.00;98220.91;5093786;27;45484;-76
2023/03/14 04:42:44;;;;;;;;;0.00;0.00;;;;;11.47;100.00;98217.50;5094563;27;45456;-76
2023/03/14 04:45:09;;;;;;;;;0.00;0.00;;;;;11.47;100.00;98216.66;5093379;27;45668;-76
2023/03/14 04:47:35;;;;;;;;;0.00;0.00;;;;;11.44;100.00;98214.19;5095151;27;45368;-76
2023/03/14 04:50:01;;;;;;;;;0.00;0.00;;;;;11.41;100.00;98209.94;5094696;27;45460;-77
2023/03/14 04:52:27;;;;;;;;;0.00;0.00;;;;;11.38;100.00;98204.00;5095221;27;45482;-76
2023/03/14 04:54:53;;;;;;;;;0.00;0.00;;;;;11.35;100.00;98202.38;5072738;27;47009;-76
2023/03/14 04:57:18;;;;;;;;;0.00;0.00;;;;;11.33;100.00;98196.34;5094330;27;45492;-76
2023/03/14 04:59:44;;;;;;;;;0.00;0.00;;;;;11.24;100.00;98174.91;5092802;27;45460;-76
2023/03/14 05:02:09;;;;;;;;;0.00;0.00;;;;;11.15;100.00;98192.97;5094349;27;45426;-76
2023/03/14 05:04:35;;;;;;;;;0.00;0.00;;;;;11.11;100.00;98201.16;5088082;27;45819;-75
2023/03/14 05:07:00;;;;;;;;;0.00;0.00;;;;;11.04;100.00;98194.53;5094561;27;45435;-76
2023/03/14 05:09:26;;;;;;;;;0.00;0.00;;;;;11.01;100.00;98185.00;5090980;27;45410;-76
2023/03/14 05:11:51;;;;;;;;;0.00;0.00;;;;;10.99;100.00;98188.66;5094242;27;45531;-76
2023/03/14 05:14:16;;;;;;;;;0.00;0.00;;;;;10.94;100.00;98188.91;5089161;27;46555;-76
2023/03/14 05:16:42;;;;;;;;;0.00;0.00;;;;;10.89;100.00;98185.72;5094575;27;45546;-76
2023/03/14 05:19:07;;;;;;;;;0.50;0.00;;;;;10.84;100.00;98190.38;5090887;27;45343;-76
2023/03/14 05:21:33;;;;;;;;;0.00;0.00;;;;;10.78;100.00;98183.66;5093979;27;45464;-76
2023/03/14 05:23:58;;;;;;;;;0.00;0.00;;;;;10.75;100.00;98189.09;5074121;27;47187;-76
2023/03/14 05:26:23;;;;;;;;;0.00;0.00;;;;;10.71;100.00;98174.41;5094507;27;45341;-77
2023/03/14 05:28:49;;;;;;;;;0.00;0.00;;;;;10.71;100.00;98184.09;5071996;27;45802;-76
2023/03/14 05:31:14;;;;;;;;;0.00;0.00;;;;;10.70;100.00;98185.88;5092824;27;45392;-76
2023/03/14 05:33:40;;;;;;;;;0.00;0.00;;;;;10.72;100.00;98188.44;5092169;27;46394;-77
2023/03/14 05:36:06;;;;;;;;;0.00;0.00;;;;;10.74;100.00;98183.91;5093816;27;45530;-76
2023/03/14 05:38:31;;;;;;;;;0.00;0.00;;;;;10.77;100.00;98176.69;5073929;27;45444;-76
2023/03/14 05:40:56;;;;;;;;;0.00;0.00;;;;;10.77;100.00;98181.94;5075549;27;45837;-76
2023/03/14 05:43:22;;;;;;;;;0.00;0.00;;;;;10.80;100.00;98180.94;5084241;27;45596;-76
2023/03/14 05:45:47;;;;;;;;;0.00;0.00;;;;;10.80;100.00;98186.22;5093792;27;45499;-76
2023/03/14 05:48:13;;;;;;;;;2.00;2.00;;;;;10.78;100.00;98194.19;5091800;27;45405;-76
2023/03/14 05:50:38;;;;;;;;;0.00;0.00;;;;;10.78;100.00;98195.97;5074470;27;45575;-76
2023/03/14 05:53:04;;;;;;;;;0.00;0.00;;;;;10.75;100.00;98202.28;5092104;27;46328;-76
2023/03/14 05:55:29;;;;;;;;;0.00;0.00;;;;;10.71;100.00;98200.75;5092385;27;45469;-76
2023/03/14 05:57:54;;;;;;;;;0.00;0.00;;;;;10.72;100.00;98205.09;5092153;27;45412;-76
2023/03/14 06:00:20;;;;;;;;;0.00;0.00;;;;;10.71;100.00;98195.50;5074939;27;45955;-76
2023/03/14 06:02:46;;;;;;;;;0.00;0.00;;;;;10.73;100.00;98198.00;5074527;27;47813;-76
2023/03/14 06:05:12;;;;;;;;;0.00;0.00;;;;;10.74;100.00;98197.09;5086868;27;45517;-76
2023/03/14 06:07:37;;;;;;;;;0.50;0.00;;;;;10.70;100.00;98203.47;5093199;27;45454;-76
2023/03/14 06:10:04;;;;;;;;;0.00;0.00;;;;;10.69;100.00;98202.63;5089867;27;45573;-76
2023/03/14 06:12:29;;;;;;;;;0.00;0.00;;;;;10.70;100.00;98208.75;5091857;27;45632;-77
2023/03/14 06:14:54;;;;;;;;;0.00;0.00;;;;;10.69;100.00;98207.91;5073997;27;45435;-76
2023/03/14 06:17:20;;;;;;;;;0.50;0.00;;;;;10.70;100.00;98208.75;5096258;27;45901;-76
2023/03/14 06:19:46;;;;;;;;;0.00;0.00;;;;;10.70;100.00;98204.34;5094435;27;45412;-76
2023/03/14 06:22:11;;;;;;;;;0.00;0.00;;;;;10.71;100.00;98207.81;5096433;27;45596;-76
2023/03/14 06:24:36;;;;;;;;;0.00;0.00;;;;;10.75;100.00;98211.97;5095166;27;45590;-75
2023/03/14 06:27:02;;;;;;;;;0.00;0.00;;;;;10.83;100.00;98212.41;5078063;27;45628;-66
2023/03/14 06:29:28;;;;;;;;;1.00;0.00;;;;;10.90;100.00;98218.16;5095480;27;45415;-68
2023/03/14 06:31:54;;;;;;;;;1.00;1.00;;;;;10.95;100.00;98213.50;5096165;27;46307;-68
2023/03/14 06:34:20;;;;;;;;;1.00;0.00;;;;;10.98;100.00;98218.59;5093155;27;45450;-62
2023/03/14 06:36:45;;;;;;;;;0.00;0.00;;;;;11.02;100.00;98215.72;5096575;27;45916;-65
2023/03/14 06:39:10;;;;;;;;;0.00;0.00;;;;;11.02;100.00;98215.72;5093555;27;45453;-65
2023/03/14 06:41:36;;;;;;;;;2.00;1.00;;;;;11.05;100.00;98223.47;5095767;27;45516;-64
2023/03/14 06:44:01;;;;;;;;;1.00;1.00;;;;;11.09;100.00;98229.41;5092484;27;45374;-65
2023/03/14 06:46:26;;;;;;;;;1.00;1.00;;;;;11.14;100.00;98222.94;5095759;27;45614;-65
2023/03/14 06:48:53;;;;;;;;;0.00;0.00;;;;;11.17;100.00;98224.56;5094160;27;45409;-62
2023/03/14 06:51:18;;;;;;;;;0.00;0.00;;;;;11.22;100.00;98219.03;5095101;27;46181;-65
2023/03/14 06:53:44;;;;;;;;;3.00;3.00;;;;;11.23;100.00;98223.38;5092481;27;45499;-65
2023/03/14 06:56:09;;;;;;;;;0.00;0.00;;;;;11.18;100.00;98232.38;5076602;27;45520;-65
2023/03/14 06:58:35;;;;;;;;;0.75;0.75;;;;;11.14;100.00;98227.34;5091365;27;45393;-65
2023/03/14 07:01:00;;;;;;;;;2.00;0.00;;;;;11.12;100.00;98234.50;5093342;27;46592;-65
2023/03/14 07:03:26;;;;;;;;;0.00;0.00;;;;;11.09;100.00;98235.53;5095105;27;45551;-65
2023/03/14 07:05:52;;;;;;;;;0.50;0.50;;;;;11.06;100.00;98240.97;5095551;27;45453;-65
2023/03/14 07:08:18;;;;;;;;;0.25;0.25;;;;;11.02;100.00;98246.53;5094538;27;45778;-65
2023/03/14 07:10:43;;;;;;;;;0.00;0.00;;;;;10.93;100.00;98239.94;5094834;27;45649;-65
2023/03/14 07:13:08;;;;;;;;;0.00;0.00;;;;;10.93;100.00;98250.50;5092850;27;45421;-65
2023/03/14 07:15:34;;;;;;;;;0.00;0.00;;;;;10.95;100.00;98251.28;5095072;27;45397;-63
2023/03/14 07:17:59;;;;;;;;;0.00;0.00;;;;;10.97;100.00;98248.56;5094208;27;45585;-68
2023/03/14 07:20:25;;;;;;;;;0.00;0.00;;;;;11.01;100.00;98244.81;5091224;27;45523;-65
2023/03/14 07:22:50;;;;;;;;;2.75;0.00;;;;;11.04;100.00;98256.06;5094562;27;45550;-64
2023/03/14 07:25:17;;;;;;;;;2.00;0.00;;;;;11.07;100.00;98261.13;5094144;27;45479;-65
2023/03/14 07:27:47;;;;;;;;;0.00;0.00;;;;;11.07;100.00;98270.81;5093591;27;45699;-64
2023/03/14 07:30:13;;;;;;;;;1.00;0.00;;;;;11.12;100.00;98274.06;5072668;27;47125;-65
2023/03/14 07:32:39;;;;;;;;;1.00;0.00;;;;;11.15;100.00;98274.75;5094669;27;45562;-64
2023/03/14 07:35:05;;;;;;;;;0.00;0.00;;;;;11.22;100.00;98282.34;5092129;27;45503;-64
2023/03/14 07:37:30;;;;;;;;;0.50;0.00;;;;;11.27;100.00;98282.91;5095194;27;45434;-65
2023/03/14 07:39:56;;;;;;;;;0.00;0.00;;;;;11.29;100.00;98288.94;5092231;27;45549;-64
2023/03/14 07:42:21;;;;;;;;;2.50;1.00;;;;;11.28;100.00;98293.38;5095019;27;45338;-64
2023/03/14 07:44:46;;;;;;;;;0.00;0.00;;;;;11.27;100.00;98296.94;5093892;27;45526;-67
2023/03/14 07:47:12;;;;;;;;;0.00;0.00;;;;;11.26;100.00;98299.66;5095612;27;45466;-65
2023/03/14 07:49:37;;;;;;;;;0.75;0.75;;;;;11.23;100.00;98300.69;5093027;27;46267;-64
2023/03/14 07:52:02;;;;;;;;;0.75;0.75;;;;;11.24;100.00;98307.66;5095396;27;45321;-64
2023/03/14 07:54:28;;;;;;;;;1.00;1.00;;;;;11.22;100.00;98309.56;5092875;27;45531;-64
2023/03/14 07:56:53;;;;;;;;;2.00;0.00;;;;;11.09;100.00;98321.72;5095462;27;45480;-64
2023/03/14 07:59:19;;;;;;;;;1.00;0.25;;;;;10.98;100.00;98321.47;5094307;27;45439;-64
2023/03/14 08:01:45;;;;;;;;;1.25;0.00;;;;;10.89;100.00;98324.63;5095337;27;45523;-63
2023/03/14 08:04:10;;;;;;;;;1.00;1.00;;;;;10.77;100.00;98326.94;5091459;27;45519;-63
2023/03/14 08:06:36;;;;;;;;;4.25;1.50;;;;;10.75;100.00;98334.09;5092656;27;45544;-63
2023/03/14 08:09:02;;;;;;;;;2.00;2.00;;;;;10.72;100.00;98334.28;5091772;27;45508;-63
2023/03/14 08:11:28;;;;;;;;;0.00;0.00;;;;;10.71;100.00;98343.13;5092448;27;45455;-64
2023/03/14 08:13:53;;;;;;;;;1.00;1.00;;;;;10.71;100.00;98353.66;5092044;27;45396;-63
2023/03/14 08:16:19;;;;;;;;;1.75;1.75;;;;;10.70;100.00;98359.88;5092848;27;45400;-63
2023/03/14 08:18:45;;;;;;;;;9.25;7.25;;;;;10.66;100.00;98365.38;5091040;27;45472;-64
2023/03/14 08:21:13;;;;;;;;;0.00;0.00;;;;;10.60;100.00;98368.31;5093765;27;45457;-63
2023/03/14 08:23:39;;;;;;;;;0.00;0.00;;;;;10.59;100.00;98375.38;5091349;27;45436;-64
2023/03/14 08:26:04;;;;;;;;;1.00;1.00;;;;;10.59;100.00;98366.59;5093720;27;45444;-63
2023/03/14 08:28:32;;;;;;;;;2.00;2.00;;;;;10.62;100.00;98377.84;5091206;27;46081;-63
2023/03/14 08:30:58;;;;;;;;;3.75;3.50;;;;;10.69;100.00;98383.66;5095121;27;45515;-63
2023/03/14 08:33:24;;;;;;;;;3.50;1.75;;;;;10.69;100.00;98387.16;5094402;27;45588;-63
2023/03/14 08:35:52;;;;;;;;;1.00;1.00;;;;;10.70;100.00;98395.91;5095307;27;45461;-64
2023/03/14 08:38:18;;;;;;;;;3.25;2.00;;;;;10.69;100.00;98388.94;5093289;27;46198;-64
2023/03/14 08:40:43;;;;;;;;;4.25;3.50;;;;;10.73;100.00;98401.84;5076146;27;45461;-63
2023/03/14 08:43:09;;;;;;;;;4.00;1.25;;;;;10.79;100.00;98405.97;5092926;27;45460;-64
2023/03/14 08:45:34;;;;;;;;;0.00;0.00;;;;;10.83;100.00;98403.09;5093689;27;45397;-64
2023/03/14 08:47:59;;;;;;;;;2.75;2.50;;;;;10.86;100.00;98396.81;5093668;27;45557;-64
2023/03/14 08:50:25;;;;;;;;;4.25;3.00;;;;;10.88;100.00;98410.78;5091788;27;45507;-64
2023/03/14 08:52:50;;;;;;;;;0.00;0.00;;;;;10.89;100.00;98420.41;5094688;27;45381;-64
2023/03/14 08:55:16;;;;;;;;;2.50;2.00;;;;;10.91;100.00;98415.00;5092777;27;45472;-63
2023/03/14 08:57:41;;;;;;;;;4.75;4.75;;;;;10.93;100.00;98423.69;5093766;27;45492;-63
2023/03/14 09:00:14;;;;;;;;;0.50;0.50;;;;;10.93;100.00;98426.34;5092461;27;45439;-64
2023/03/14 09:02:39;;;;;;;;;4.50;4.50;;;;;10.94;100.00;98438.59;5083894;27;45484;-63
2023/03/14 09:05:05;;;;;;;;;1.00;1.00;;;;;10.97;100.00;98444.56;5087704;27;45422;-63
2023/03/14 09:07:31;;;;;;;;;0.00;0.00;;;;;11.00;100.00;98449.69;5094492;27;45356;-64
2023/03/14 09:09:56;;;;;;;;;1.00;0.25;;;;;11.00;100.00;98457.59;5089541;27;45492;-63
2023/03/14 09:12:21;;;;;;;;;0.25;0.25;;;;;11.01;100.00;98453.16;5086668;27;45492;-64
2023/03/14 09:14:47;;;;;;;;;0.00;0.00;;;;;11.03;100.00;98457.44;5090514;27;45536;-63
2023/03/14 09:17:12;;;;;;;;;0.75;0.00;;;;;11.07;100.00;98464.22;5076630;27;48318;-64
2023/03/14 09:19:37;;;;;;;;;0.75;0.75;;;;;11.13;100.00;98468.34;5088538;27;45345;-64
2023/03/14 09:22:03;;;;;;;;;0.50;0.50;;;;;11.15;100.00;98479.66;5094828;27;45435;-64
2023/03/14 09:24:28;;;;;;;;;0.25;0.00;;;;;11.15;100.00;98491.06;5089410;27;45489;-64
2023/03/14 09:26:56;;;;;;;;;2.50;1.00;;;;;11.12;100.00;98487.75;5075658;27;47215;-64
2023/03/14 09:29:22;;;;;;;;;0.40;0.40;;;;;11.06;100.00;98510.00;5092573;27;45346;-64
2023/03/14 09:31:47;;;;;;;;;2.00;1.00;;;;;11.02;100.00;98523.44;5092894;27;45372;-64
2023/03/14 09:34:13;;;;;;;;;0.00;0.00;;;;;10.91;100.00;98526.63;5092119;27;45479;-64
2023/03/14 09:36:39;;;;;;;;;1.50;1.50;;;;;10.79;100.00;98537.81;5094454;27;45550;-64
2023/03/14 09:39:05;;;;;;;;;1.00;1.00;;;;;10.65;100.00;98545.53;5092056;27;45574;-64
2023/03/14 09:41:37;;;;;;;;;0.50;0.50;;;;;10.51;100.00;98556.78;5094470;27;45616;-63
2023/03/14 09:44:10;;;;;;;;;2.00;0.00;;;;;10.42;100.00;98554.56;5090925;27;45384;-63
2023/03/14 09:46:38;;;;;;;;;0.00;0.00;;;;;10.40;100.00;98562.53;5094312;27;45659;-63
2023/03/14 09:49:11;;;;;;;;;1.80;1.00;;;;;10.39;100.00;98563.47;5092213;27;45539;-63
2023/03/14 09:51:37;;;;;;;;;0.75;0.75;;;;;10.35;100.00;98575.09;5089925;27;45471;-63
2023/03/14 09:54:05;;;;;;;;;1.00;1.00;;;;;10.28;100.00;98586.00;5092545;27;45385;-63
2023/03/14 09:56:33;;;;;;;;;2.00;2.00;;;;;10.18;100.00;98590.81;5093528;27;45532;-64
2023/03/14 09:59:02;;;;;;;;;3.00;3.00;;;;;10.11;100.00;98602.56;5088662;27;45373;-63
2023/03/14 10:01:30;;;;;;;;;1.00;1.00;;;;;10.05;100.00;98611.59;5094196;27;45293;-63
2023/03/14 10:04:05;;;;;;;;;1.75;1.75;;;;;10.01;100.00;98617.09;5087915;27;45837;-63
2023/03/14 10:06:31;;;;;;;;;3.00;3.00;;;;;9.98;100.00;98623.34;5092374;27;47805;-63
2023/03/14 10:08:57;;;;;;;;;3.80;1.40;;;;;9.99;100.00;98622.44;5091070;27;45420;-63
2023/03/14 10:11:23;;;;;;;;;1.00;1.00;;;;;10.03;100.00;98618.75;5090612;27;45376;-63
2023/03/14 10:14:03;;;;;;;;;2.00;2.00;;;;;10.09;100.00;98621.06;5088835;27;45491;-63
2023/03/14 10:16:31;;;;;;;;;6.25;6.25;;;;;10.19;100.00;98620.69;5092619;27;46021;-63
2023/03/14 10:19:04;;;;;;;;;2.40;2.40;;;;;10.26;100.00;98630.00;5090835;27;45455;-64
2023/03/14 10:21:34;;;;;;;;;4.25;3.00;;;;;10.34;100.00;98641.03;5090490;27;45311;-64
2023/03/14 10:24:20;;;;;;;;;3.50;2.75;;;;;10.42;100.00;98634.47;5089869;27;45429;-63
2023/03/14 10:26:54;;;;;;;;;0.00;0.00;;;;;10.56;100.00;98646.16;5093674;27;46561;-63
2023/03/14 10:29:21;;;;;;;;;2.00;1.80;;;;;10.59;100.00;98682.91;5089496;27;45480;-63
2023/03/14 10:32:03;;;;;;;;;1.00;1.00;;;;;10.55;100.00;98661.13;5093012;27;45484;-63
2023/03/14 10:34:37;;;;;;;;;0.00;0.00;;;;;10.55;100.00;98671.66;5084635;27;45595;-63
2023/03/14 10:37:22;;;;;;;;;0.00;0.00;;;;;10.53;100.00;98677.94;5093405;27;46459;-64
2023/03/14 10:39:52;;;;;;;;;0.00;0.00;;;;;10.52;100.00;98686.78;5091854;27;45426;-63
2023/03/14 10:42:24;;;;;;;;;0.00;0.00;;;;;10.45;100.00;98697.59;5092162;27;45511;-64
2023/03/14 10:44:55;;;;;;;;;0.00;0.00;;;;;10.40;100.00;98704.84;5092163;27;45439;-64
2023/03/14 10:47:24;;;;;;;;;0.00;0.00;;;;;10.35;100.00;98720.03;5093908;27;45383;-64
2023/03/14 10:49:50;;;;;;;;;2.40;0.00;;;;;10.28;100.00;98723.00;5068826;27;45356;-64
2023/03/14 10:52:23;;;;;;;;;0.00;0.00;;;;;10.23;100.00;98723.19;5091600;27;45439;-63
2023/03/14 10:55:00;;;;;;;;;0.00;0.00;;;;;10.26;100.00;98712.53;5086902;27;45683;-63
2023/03/14 10:57:26;;;;;;;;;3.25;1.25;;;;;10.35;100.00;98711.25;5085571;27;46737;-63
2023/03/14 10:59:54;;;;;;;;;5.00;2.00;;;;;10.51;100.00;98714.91;5086203;27;45384;-63
2023/03/14 11:02:34;;;;;;;;;0.00;0.00;;;;;10.62;100.00;98711.75;5093713;27;45479;-62
2023/03/14 11:05:07;;;;;;;;;4.00;1.75;;;;;10.73;100.00;98722.66;5091649;27;45387;-65
2023/03/14 11:07:40;;;;;;;;;1.00;1.00;;;;;10.82;100.00;98711.69;5097327;27;46206;-63
2023/03/14 11:10:30;;;;;;;;;0.00;0.00;;;;;10.94;100.00;98718.13;5093450;27;45491;-63
2023/03/14 11:13:33;;;;;;;;;0.00;0.00;;;;;11.05;100.00;98736.97;5095822;27;45430;-63
2023/03/14 11:16:04;;;;;;;;;0.25;0.25;;;;;11.25;100.00;98741.25;5093955;27;45507;-64
2023/03/14 11:18:54;;;;;;;;;1.00;0.00;;;;;11.34;100.00;98728.47;5094764;27;45508;-64
2023/03/14 11:21:29;;;;;;;;;0.00;0.00;;;;;11.48;100.00;98736.56;5095718;27;45384;-65
2023/03/14 11:24:23;;;;;;;;;1.00;0.00;;;;;11.61;100.00;98738.56;5090575;27;45448;-65
2023/03/14 11:27:12;;;;;;;;;1.25;0.00;;;;;11.78;100.00;98738.59;5093935;27;45512;-65
2023/03/14 11:29:39;;;;;;;;;0.00;0.00;;;;;11.91;100.00;98752.03;5094581;27;46468;-66
2023/03/14 11:32:34;;;;;;;;;0.00;0.00;;;;;11.99;94.44;98742.78;5077632;27;45429;-65